createdAt,value
2018-04-21T00:00:43.571Z,24.12
2018-04-21T00:03:15.058Z,24.16
2018-04-21T00:05:46.377Z,24.16
2018-04-21T00:08:18.582Z,24.01
2018-04-21T00:10:50.621Z,24.15
2018-04-21T00:15:59.440Z,24.19
2018-04-21T00:18:31.200Z,24.23
2018-04-21T00:21:02.507Z,24.20
2018-04-21T00:23:35.133Z,24.19
2018-04-21T00:26:06.942Z,24.25
2018-04-21T00:28:38.483Z,24.23
2018-04-21T00:31:10.781Z,24.17
2018-04-21T00:33:43.548Z,24.20
2018-04-21T00:36:15.015Z,24.23
2018-04-21T00:38:46.613Z,24.18
2018-04-21T00:41:19.537Z,24.06
2018-04-21T00:43:50.796Z,24.02
2018-04-21T00:46:22.232Z,23.93
2018-04-21T00:48:53.504Z,23.90
2018-04-21T00:51:26.183Z,23.92
2018-04-21T00:54:07.145Z,23.87
2018-04-21T00:56:38.303Z,23.89
2018-04-21T00:59:09.876Z,23.66
2018-04-21T01:01:43.624Z,23.50
2018-04-21T01:04:15.019Z,23.44
2018-04-21T01:06:47.670Z,23.43
2018-04-21T01:09:19.534Z,23.53
2018-04-21T01:11:50.930Z,23.41
2018-04-21T01:14:24.315Z,23.41
2018-04-21T01:16:58.829Z,23.42
2018-04-21T01:19:30.542Z,23.29
2018-04-21T01:22:02.258Z,23.26
2018-04-21T01:24:36.648Z,23.23
2018-04-21T01:27:08.255Z,23.23
2018-04-21T01:29:40.287Z,23.24
2018-04-21T01:34:50.839Z,23.05
2018-04-21T01:37:22.615Z,22.90
2018-04-21T01:39:53.831Z,22.85
2018-04-21T01:42:26.393Z,22.83
2018-04-21T01:44:58.896Z,22.72
2018-04-21T01:47:31.193Z,22.75
2018-04-21T01:50:03.286Z,22.71
2018-04-21T01:52:36.315Z,22.64
2018-04-21T01:55:08.649Z,22.51
2018-04-21T01:57:42.053Z,22.46
2018-04-21T02:00:16.627Z,22.34
2018-04-21T02:02:54.566Z,22.37
2018-04-21T02:05:27.173Z,22.39
2018-04-21T02:07:59.002Z,22.33
2018-04-21T02:13:30.766Z,22.32
2018-04-21T02:16:12.950Z,22.27
2018-04-21T02:18:44.551Z,22.24
2018-04-21T02:21:15.958Z,22.16
2018-04-21T02:23:47.394Z,22.08
2018-04-21T02:26:18.709Z,22.05
2018-04-21T02:28:51.279Z,21.93
2018-04-21T02:31:22.956Z,21.85
2018-04-21T02:33:54.633Z,21.76
2018-04-21T02:36:26.024Z,21.74
2018-04-21T02:38:57.202Z,21.60
2018-04-21T02:41:28.669Z,21.54
2018-04-21T02:44:00.967Z,21.58
2018-04-21T02:46:33.019Z,21.53
2018-04-21T02:49:06.350Z,21.37
2018-04-21T02:51:38.491Z,21.42
2018-04-21T02:54:09.837Z,21.30
2018-04-21T02:56:42.079Z,21.04
2018-04-21T02:59:13.784Z,20.85
2018-04-21T03:01:45.662Z,20.64
2018-04-21T03:04:17.092Z,20.50
2018-04-21T03:06:48.707Z,20.46
2018-04-21T03:09:20.042Z,20.40
2018-04-21T03:11:54.900Z,20.26
2018-04-21T03:14:26.793Z,20.13
2018-04-21T03:16:58.569Z,20.03
2018-04-21T03:19:29.900Z,19.91
2018-04-21T03:22:01.893Z,19.76
2018-04-21T03:24:33.321Z,19.70
2018-04-21T03:27:06.293Z,19.67
2018-04-21T03:29:37.708Z,19.66
2018-04-21T03:32:09.519Z,19.68
2018-04-21T03:34:40.774Z,19.61
2018-04-21T03:37:16.853Z,19.46
2018-04-21T03:39:49.085Z,19.33
2018-04-21T03:42:20.894Z,19.23
2018-04-21T03:44:52.362Z,19.21
2018-04-21T03:47:24.264Z,19.16
2018-04-21T03:49:56.916Z,19.12
2018-04-21T03:52:29.138Z,19.13
2018-04-21T03:55:00.976Z,19.29
2018-04-21T03:57:34.080Z,19.22
2018-04-21T04:00:08.963Z,19.20
2018-04-21T04:02:40.218Z,19.30
2018-04-21T04:05:11.776Z,19.25
2018-04-21T04:07:43.092Z,19.26
2018-04-21T04:10:14.858Z,19.19
2018-04-21T04:12:46.939Z,19.04
2018-04-21T04:15:29.640Z,19.06
2018-04-21T04:19:08.311Z,19.00
2018-04-21T04:22:51.728Z,18.89
2018-04-21T04:25:23.092Z,18.57
2018-04-21T04:27:54.895Z,18.77
2018-04-21T04:30:26.746Z,18.81
2018-04-21T04:32:58.126Z,18.83
2018-04-21T04:35:35.895Z,18.95
2018-04-21T04:38:07.175Z,18.93
2018-04-21T04:40:39.020Z,18.92
2018-04-21T04:43:17.154Z,19.03
2018-04-21T04:45:49.341Z,19.14
2018-04-21T04:48:21.390Z,19.09
2018-04-21T04:50:55.224Z,19.02
2018-04-21T04:53:27.449Z,18.91
2018-04-21T04:55:59.709Z,18.96
2018-04-21T04:58:31.563Z,18.95
2018-04-21T05:01:04.261Z,18.96
2018-04-21T05:03:36.293Z,19.09
2018-04-21T05:06:07.684Z,19.16
2018-04-21T05:08:40.894Z,19.30
2018-04-21T05:11:12.488Z,19.23
2018-04-21T05:13:44.185Z,19.23
2018-04-21T05:16:15.986Z,19.32
2018-04-21T05:18:47.332Z,19.47
2018-04-21T05:21:23.417Z,19.62
2018-04-21T05:23:55.710Z,19.63
2018-04-21T05:26:27.303Z,19.72
2018-04-21T05:28:59.916Z,19.71
2018-04-21T05:31:31.747Z,19.93
2018-04-21T05:34:06.067Z,19.95
2018-04-21T05:36:38.185Z,20.02
2018-04-21T05:39:09.632Z,19.80
2018-04-21T05:41:50.509Z,19.77
2018-04-21T05:44:22.271Z,20.07
2018-04-21T05:46:55.352Z,19.85
2018-04-21T05:49:28.763Z,19.97
2018-04-21T05:52:00.362Z,20.12
2018-04-21T05:54:33.041Z,20.11
2018-04-21T05:57:05.311Z,20.12
2018-04-21T05:59:37.081Z,20.20
2018-04-21T06:02:13.772Z,20.29
2018-04-21T06:04:46.910Z,20.33
2018-04-21T06:07:18.298Z,20.34
2018-04-21T06:09:50.901Z,20.45
2018-04-21T06:12:22.088Z,20.82
2018-04-21T06:14:53.471Z,20.79
2018-04-21T06:17:25.761Z,20.57
2018-04-21T06:20:04.454Z,20.48
2018-04-21T06:22:38.930Z,20.47
2018-04-21T06:25:23.048Z,20.39
2018-04-21T06:27:55.475Z,20.55
2018-04-21T06:30:27.456Z,20.78
2018-04-21T06:32:59.879Z,21.07
2018-04-21T06:35:38.905Z,21.29
2018-04-21T06:38:10.371Z,21.41
2018-04-21T06:40:43.225Z,21.67
2018-04-21T06:43:16.601Z,21.81
2018-04-21T06:45:49.248Z,21.97
2018-04-21T06:48:20.654Z,21.99
2018-04-21T06:51:02.983Z,22.08
2018-04-21T06:53:35.609Z,22.27
2018-04-21T06:56:10.395Z,22.38
2018-04-21T06:58:54.515Z,22.55
2018-04-21T07:01:37.787Z,22.89
2018-04-21T07:04:25.998Z,22.69
2018-04-21T07:07:00.564Z,22.78
2018-04-21T07:09:32.070Z,22.80
2018-04-21T07:12:04.603Z,23.17
2018-04-21T07:14:39.058Z,23.18
2018-04-21T07:17:12.364Z,23.43
2018-04-21T07:19:46.972Z,23.85
2018-04-21T07:22:20.763Z,24.42
2018-04-21T07:24:53.461Z,24.66
2018-04-21T07:27:43.567Z,24.60
2018-04-21T07:30:26.852Z,24.59
2018-04-21T07:35:35.436Z,24.95
2018-04-21T07:38:05.874Z,25.05
2018-04-21T07:40:36.491Z,25.46
2018-04-21T07:43:08.819Z,25.65
2018-04-21T07:45:39.737Z,25.67
2018-04-21T07:48:10.310Z,25.75
2018-04-21T07:56:18.227Z,25.90
2018-04-21T07:58:49.584Z,26.70
2018-04-21T08:01:20.369Z,26.89
2018-04-21T08:03:52.239Z,27.18
2018-04-21T08:06:22.971Z,27.20
2018-04-21T08:08:53.937Z,27.30
2018-04-21T08:11:24.296Z,27.11
2018-04-21T08:13:55.884Z,27.29
2018-04-21T08:16:28.137Z,27.96
2018-04-21T08:18:58.699Z,28.22
2018-04-21T08:21:29.447Z,28.22
2018-04-21T08:23:59.972Z,28.32
2018-04-21T08:26:31.376Z,28.18
2018-04-21T08:29:01.863Z,28.01
2018-04-21T08:31:33.110Z,27.90
2018-04-21T08:34:03.448Z,28.16
2018-04-21T08:36:34.186Z,28.38
2018-04-21T08:39:06.754Z,28.52
2018-04-21T08:45:13.589Z,29.42
2018-04-21T08:47:44.130Z,29.90
2018-04-21T08:50:14.547Z,29.62
2018-04-21T08:53:10.830Z,29.52
2018-04-21T08:55:41.904Z,29.91
2018-04-21T08:58:13.124Z,29.64
2018-04-21T09:00:43.881Z,29.88
2018-04-21T09:03:14.966Z,30.48
2018-04-21T09:05:45.875Z,30.37
2018-04-21T09:08:16.211Z,29.86
2018-04-21T09:10:46.533Z,29.93
2018-04-21T09:13:19.680Z,29.82
2018-04-21T09:15:51.511Z,29.65
2018-04-21T09:18:23.078Z,29.84
2018-04-21T09:20:55.862Z,30.21
2018-04-21T09:23:26.584Z,30.42
2018-04-21T09:25:57.888Z,29.97
2018-04-21T09:28:28.503Z,30.06
2018-04-21T09:31:10.768Z,30.07
2018-04-21T09:33:52.913Z,29.91
2018-04-21T09:36:23.335Z,30.12
2018-04-21T09:38:54.888Z,30.16
2018-04-21T09:41:27.258Z,29.96
2018-04-21T09:43:57.974Z,30.10
2018-04-21T09:46:32.153Z,29.40
2018-04-21T09:49:02.637Z,29.38
2018-04-21T09:51:33.620Z,29.55
2018-04-21T09:54:04.393Z,29.78
2018-04-21T09:56:34.969Z,29.54
2018-04-21T09:59:05.522Z,29.85
2018-04-21T10:01:37.410Z,30.61
2018-04-21T10:04:13.361Z,30.47
2018-04-21T10:06:44.267Z,30.18
2018-04-21T10:09:14.557Z,30.54
2018-04-21T10:11:54.619Z,30.93
2018-04-21T10:14:34.939Z,31.35
2018-04-21T10:17:07.115Z,31.77
2018-04-21T10:19:40.342Z,31.21
2018-04-21T10:22:14.071Z,31.45
2018-04-21T10:24:45.099Z,32.11
2018-04-21T10:27:18.955Z,32.66
2018-04-21T10:29:53.190Z,32.11
2018-04-21T10:32:25.993Z,32.77
2018-04-21T10:35:01.043Z,33.31
2018-04-21T10:37:32.456Z,33.28
2018-04-21T10:40:03.307Z,33.57
2018-04-21T10:42:37.977Z,33.56
2018-04-21T10:45:19.879Z,33.98
2018-04-21T10:47:50.961Z,35.04
2018-04-21T10:50:24.337Z,35.18
2018-04-21T10:52:59.772Z,34.86
2018-04-21T10:55:36.362Z,34.67
2018-04-21T10:58:07.272Z,34.32
2018-04-21T11:00:40.017Z,35.07
2018-04-21T11:03:32.326Z,35.59
2018-04-21T11:06:05.109Z,35.45
2018-04-21T11:08:37.635Z,35.42
2018-04-21T11:11:16.113Z,35.28
2018-04-21T11:13:47.604Z,35.11
2018-04-21T11:19:28.882Z,35.20
2018-04-21T11:22:05.158Z,35.89
2018-04-21T11:24:42.590Z,35.28
2018-04-21T11:27:13.168Z,34.64
2018-04-21T11:29:44.637Z,35.08
2018-04-21T11:32:16.638Z,34.81
2018-04-21T11:34:57.454Z,34.44
2018-04-21T11:37:28.930Z,34.56
2018-04-21T11:40:14.955Z,34.60
2018-04-21T11:42:52.631Z,34.29
2018-04-21T11:45:26.345Z,34.03
2018-04-21T11:47:57.543Z,34.59
2018-04-21T11:50:32.626Z,34.96
2018-04-21T11:53:05.017Z,34.35
2018-04-21T11:55:36.244Z,34.29
2018-04-21T11:58:10.023Z,34.24
2018-04-21T12:00:44.874Z,34.03
2018-04-21T12:03:19.222Z,33.43
2018-04-21T12:05:51.768Z,33.30
2018-04-21T12:08:23.923Z,33.76
2018-04-21T12:10:55.518Z,34.28
2018-04-21T12:13:26.736Z,34.65
2018-04-21T12:15:57.879Z,34.63
2018-04-21T12:18:33.439Z,34.82
2018-04-21T12:21:06.349Z,35.17
2018-04-21T12:23:37.046Z,34.83
2018-04-21T12:26:09.123Z,34.78
2018-04-21T12:28:40.158Z,35.00
2018-04-21T12:31:11.268Z,34.87
2018-04-21T12:33:42.051Z,36.10
2018-04-21T12:36:12.835Z,36.34
2018-04-21T12:38:46.362Z,35.51
2018-04-21T12:41:18.225Z,36.02
2018-04-21T12:44:02.245Z,35.48
2018-04-21T12:46:45.575Z,35.01
2018-04-21T12:49:16.128Z,35.02
2018-04-21T12:51:51.638Z,35.08
2018-04-21T12:54:27.292Z,35.30
2018-04-21T12:56:59.652Z,35.75
2018-04-21T12:59:31.580Z,35.35
2018-04-21T13:02:05.968Z,35.53
2018-04-21T13:04:36.859Z,35.74
2018-04-21T13:07:07.408Z,35.76
2018-04-21T13:09:39.880Z,35.15
2018-04-21T13:12:10.808Z,35.19
2018-04-21T13:14:41.269Z,35.15
2018-04-21T13:17:11.684Z,35.60
2018-04-21T13:19:44.547Z,35.59
2018-04-21T13:22:16.056Z,35.32
2018-04-21T13:24:50.600Z,35.54
2018-04-21T13:27:22.317Z,35.13
2018-04-21T13:29:58.112Z,35.68
2018-04-21T13:32:29.679Z,35.33
2018-04-21T13:35:16.656Z,35.03
2018-04-21T13:37:48.659Z,34.96
2018-04-21T13:40:19.335Z,34.97
2018-04-21T13:42:55.805Z,35.02
2018-04-21T13:45:27.049Z,34.90
2018-04-21T13:47:59.303Z,34.53
2018-04-21T13:50:31.637Z,34.25
2018-04-21T13:53:02.706Z,34.04
2018-04-21T13:55:33.263Z,33.67
2018-04-21T13:58:03.818Z,33.65
2018-04-21T14:00:35.454Z,34.00
2018-04-21T14:03:08.810Z,34.07
2018-04-21T14:05:40.021Z,33.10
2018-04-21T14:08:11.068Z,32.76
2018-04-21T14:10:42.959Z,32.42
2018-04-21T14:13:14.330Z,32.59
2018-04-21T14:15:45.155Z,32.70
2018-04-21T14:18:15.727Z,32.52
2018-04-21T14:20:47.341Z,32.42
2018-04-21T14:23:20.830Z,31.99
2018-04-21T14:25:56.668Z,31.79
2018-04-21T14:28:30.019Z,31.98
2018-04-21T14:31:15.783Z,32.30
2018-04-21T14:33:57.531Z,31.46
2018-04-21T14:36:28.886Z,31.45
2018-04-21T14:39:20.688Z,31.72
2018-04-21T14:41:53.011Z,31.31
2018-04-21T14:44:27.822Z,30.99
2018-04-21T14:47:00.528Z,30.82
2018-04-21T14:49:32.958Z,30.85
2018-04-21T14:52:03.395Z,31.02
2018-04-21T14:54:34.973Z,31.07
2018-04-21T14:57:06.454Z,30.96
2018-04-21T14:59:38.078Z,30.94
2018-04-21T15:02:08.764Z,30.87
2018-04-21T15:04:40.990Z,30.57
2018-04-21T15:07:13.606Z,30.58
2018-04-21T15:09:43.884Z,30.01
2018-04-21T15:12:14.178Z,29.58
2018-04-21T15:14:48.290Z,29.45
2018-04-21T15:17:24.639Z,29.59
2018-04-21T15:19:58.179Z,29.41
2018-04-21T15:22:29.095Z,29.15
2018-04-21T15:24:59.861Z,29.00
2018-04-21T15:27:31.258Z,28.68
2018-04-21T15:30:07.077Z,28.61
2018-04-21T15:32:37.506Z,28.64
2018-04-21T15:35:08.693Z,28.34
2018-04-21T15:37:39.236Z,28.23
2018-04-21T15:40:21.950Z,28.34
2018-04-21T15:42:53.059Z,28.32
2018-04-21T15:45:23.560Z,28.27
2018-04-21T15:48:01.617Z,27.69
2018-04-21T15:50:38.803Z,27.47
2018-04-21T15:53:11.234Z,27.57
2018-04-21T15:55:41.735Z,27.50
2018-04-21T15:58:13.073Z,27.49
2018-04-21T16:00:45.375Z,27.52
2018-04-21T16:03:23.182Z,27.57
2018-04-21T16:05:53.735Z,27.55
2018-04-21T16:08:24.702Z,27.52
2018-04-21T16:10:56.078Z,27.45
2018-04-21T16:13:27.030Z,27.46
2018-04-21T16:15:59.544Z,27.51
2018-04-21T16:18:34.011Z,27.49
2018-04-21T16:23:43.203Z,27.28
2018-04-21T16:26:13.385Z,27.11
2018-04-21T16:28:43.955Z,27.15
2018-04-21T16:31:17.415Z,27.16
2018-04-21T16:33:50.975Z,27.09
2018-04-21T16:36:22.820Z,27.22
2018-04-21T16:38:55.896Z,27.24
2018-04-21T16:41:28.339Z,27.12
2018-04-21T16:43:59.271Z,27.09
2018-04-21T16:46:30.422Z,26.94
2018-04-21T16:49:17.491Z,26.91
2018-04-21T16:51:48.211Z,26.88
2018-04-21T16:54:20.737Z,26.77
2018-04-21T16:56:56.011Z,26.63
2018-04-21T16:59:32.873Z,26.77
2018-04-21T17:02:03.709Z,26.48
2018-04-21T17:04:34.443Z,26.62
2018-04-21T17:07:07.978Z,26.59
2018-04-21T17:09:38.930Z,26.49
2018-04-21T17:12:10.185Z,26.52
2018-04-21T17:14:41.019Z,26.43
2018-04-21T17:17:12.244Z,26.32
2018-04-21T17:19:44.576Z,26.35
2018-04-21T17:22:18.350Z,26.49
2018-04-21T17:24:50.049Z,26.55
2018-04-21T17:27:21.565Z,26.38
2018-04-21T17:29:52.097Z,26.31
2018-04-21T17:32:25.212Z,26.19
2018-04-21T17:34:57.614Z,26.29
2018-04-21T17:37:28.545Z,26.25
2018-04-21T17:40:00.346Z,26.19
2018-04-21T17:42:31.830Z,26.13
2018-04-21T17:45:14.778Z,26.08
2018-04-21T17:47:46.366Z,26.04
2018-04-21T17:50:18.527Z,26.01
2018-04-21T17:52:49.467Z,25.98
2018-04-21T17:55:24.723Z,26.00
2018-04-21T17:58:02.058Z,26.01
2018-04-21T18:00:32.719Z,25.94
2018-04-21T18:03:06.485Z,25.83
2018-04-21T18:05:37.547Z,25.84
2018-04-21T18:08:08.465Z,25.77
2018-04-21T18:10:39.074Z,25.70
2018-04-21T18:13:09.368Z,25.67
2018-04-21T18:15:39.959Z,25.60
2018-04-21T18:18:10.773Z,25.54
2018-04-21T18:20:52.577Z,25.44
2018-04-21T18:23:22.862Z,25.33
2018-04-21T18:25:55.025Z,25.31
2018-04-21T18:28:25.857Z,25.24
2018-04-21T18:31:03.113Z,25.25
2018-04-21T18:33:41.319Z,25.26
2018-04-21T18:36:14.788Z,25.16
2018-04-21T18:38:45.581Z,25.13
2018-04-21T18:41:16.711Z,25.10
2018-04-21T18:43:50.246Z,24.98
2018-04-21T18:46:20.918Z,25.03
2018-04-21T18:48:54.635Z,24.91
2018-04-21T18:51:26.550Z,24.92
2018-04-21T18:54:02.075Z,24.83
2018-04-21T18:56:33.321Z,24.73
2018-04-21T18:59:04.348Z,24.65
2018-04-21T19:01:35.445Z,24.59
2018-04-21T19:04:07.589Z,24.53
2018-04-21T19:06:37.910Z,24.48
2018-04-21T19:09:08.561Z,24.51
2018-04-21T19:11:39.405Z,24.52
2018-04-21T19:14:10.244Z,24.47
2018-04-21T19:16:41.136Z,24.43
2018-04-21T19:19:19.183Z,24.33
2018-04-21T19:21:50.883Z,24.33
2018-04-21T19:24:22.077Z,24.40
2018-04-21T19:26:53.369Z,24.45
2018-04-21T19:29:33.635Z,24.36
2018-04-21T19:32:04.698Z,24.22
2018-04-21T19:34:36.822Z,24.00
2018-04-21T19:37:08.987Z,24.00
2018-04-21T19:39:47.109Z,23.94
2018-04-21T19:42:19.205Z,23.92
2018-04-21T19:44:49.383Z,23.84
2018-04-21T19:47:20.240Z,23.79
2018-04-21T19:49:51.251Z,23.82
2018-04-21T19:55:22.215Z,23.61
2018-04-21T19:57:52.803Z,23.55
2018-04-21T20:00:23.187Z,23.52
2018-04-21T20:02:53.809Z,23.50
2018-04-21T20:05:24.545Z,23.50
2018-04-21T20:07:56.627Z,23.55
2018-04-21T20:10:27.456Z,23.43
2018-04-21T20:12:57.907Z,23.42
2018-04-21T20:15:29.371Z,23.42
2018-04-21T20:17:59.951Z,23.35
2018-04-21T20:20:31.903Z,23.41
2018-04-21T20:23:02.328Z,23.42
2018-04-21T20:25:34.762Z,23.47
2018-04-21T20:28:05.215Z,23.35
2018-04-21T20:30:35.718Z,23.23
2018-04-21T20:33:29.405Z,23.30
2018-04-21T20:36:19.300Z,23.32
2018-04-21T20:38:50.290Z,23.28
2018-04-21T20:41:21.577Z,23.10
2018-04-21T20:43:52.776Z,23.03
2018-04-21T20:46:24.304Z,23.05
2018-04-21T20:48:57.507Z,22.93
2018-04-21T20:51:30.111Z,22.89
2018-04-21T20:54:01.787Z,22.80
2018-04-21T20:56:36.278Z,22.55
2018-04-21T20:59:14.428Z,22.73
2018-04-21T21:01:45.794Z,22.74
2018-04-21T21:04:20.407Z,22.82
2018-04-21T21:06:52.472Z,22.77
2018-04-21T21:09:23.603Z,22.82
2018-04-21T21:11:55.231Z,22.77
2018-04-21T21:14:28.163Z,22.71
2018-04-21T21:16:59.037Z,22.71
2018-04-21T21:19:30.941Z,22.80
2018-04-21T21:22:01.388Z,22.89
2018-04-21T21:24:41.166Z,22.82
2018-04-21T21:27:12.122Z,22.88
2018-04-21T21:29:42.833Z,22.84
2018-04-21T21:32:13.715Z,22.97
2018-04-21T21:34:44.441Z,22.96
2018-04-21T21:37:16.408Z,22.86
2018-04-21T21:39:46.797Z,22.73
2018-04-21T21:42:17.490Z,22.61
2018-04-21T21:44:47.794Z,22.65
2018-04-21T21:47:19.457Z,22.70
2018-04-21T21:49:50.236Z,22.68
2018-04-21T21:52:20.744Z,22.65
2018-04-21T21:54:52.167Z,22.63
2018-04-21T21:57:24.775Z,22.56
2018-04-21T21:59:57.015Z,22.46
2018-04-21T22:02:27.326Z,22.37
2018-04-21T22:04:58.202Z,22.45
2018-04-21T22:07:32.564Z,22.51
2018-04-21T22:10:04.338Z,22.46
2018-04-21T22:12:35.745Z,22.53
2018-04-21T22:15:07.259Z,22.60
2018-04-21T22:17:38.140Z,22.65
2018-04-21T22:20:08.534Z,22.65
2018-04-21T22:22:38.927Z,22.73
2018-04-21T22:25:10.851Z,22.50
2018-04-21T22:27:42.220Z,22.34
2018-04-21T22:30:17.834Z,22.27
2018-04-21T22:32:48.228Z,22.24
2018-04-21T22:35:18.745Z,22.22
2018-04-21T22:37:48.969Z,22.18
2018-04-21T22:40:20.078Z,22.29
2018-04-21T22:43:00.445Z,22.38
2018-04-21T22:50:19.965Z,22.50
2018-04-21T22:52:51.579Z,22.34
2018-04-21T22:55:25.154Z,22.21
2018-04-21T22:57:57.621Z,22.07
2018-04-21T23:00:29.761Z,22.11
2018-04-21T23:03:00.957Z,22.00
2018-04-21T23:05:32.053Z,21.99
2018-04-21T23:08:02.647Z,22.07
2018-04-21T23:10:33.878Z,22.01
2018-04-21T23:13:04.474Z,21.88
2018-04-21T23:15:35.612Z,21.79
2018-04-21T23:18:05.993Z,21.70
2018-04-21T23:20:36.554Z,21.58
2018-04-21T23:23:06.816Z,21.59
2018-04-21T23:25:37.630Z,21.75
2018-04-21T23:28:08.504Z,21.72
2018-04-21T23:30:38.995Z,21.66
2018-04-21T23:33:09.560Z,21.75
2018-04-21T23:35:40.453Z,21.61
2018-04-21T23:38:13.318Z,21.55
2018-04-21T23:40:44.009Z,21.50
2018-04-21T23:43:23.319Z,21.53
2018-04-21T23:45:57.089Z,21.65
2018-04-21T23:48:28.458Z,21.66
2018-04-21T23:50:59.238Z,21.44
2018-04-21T23:53:32.908Z,21.28
2018-04-21T23:56:14.738Z,21.21
2018-04-21T23:58:45.226Z,21.11
